createdAt,value
2018-01-24T00:07:27.601Z,11
2018-01-24T00:17:26.691Z,11
2018-01-24T00:27:26.708Z,12
2018-01-24T00:37:26.650Z,12
2018-01-24T00:47:26.622Z,11
2018-01-24T00:57:26.577Z,13
2018-01-24T01:07:26.707Z,13
2018-01-24T01:17:26.684Z,12
2018-01-24T01:27:26.766Z,13
2018-01-24T01:37:26.639Z,13
2018-01-24T01:47:26.748Z,13
2018-01-24T01:57:26.728Z,12
2018-01-24T02:07:26.723Z,12
2018-01-24T02:17:26.729Z,11
2018-01-24T02:27:26.817Z,10
2018-01-24T02:37:26.813Z,10
2018-01-24T02:47:26.787Z,9
2018-01-24T02:57:26.785Z,9
2018-01-24T03:07:26.845Z,8
2018-01-24T03:17:26.841Z,9
2018-01-24T03:27:26.862Z,10
2018-01-24T03:37:26.840Z,10
2018-01-24T03:47:26.790Z,11
2018-01-24T03:57:26.878Z,11
2018-01-24T04:07:26.835Z,12
2018-01-24T04:17:26.951Z,12
2018-01-24T04:27:26.940Z,13
2018-01-24T04:37:26.981Z,12
2018-01-24T04:47:26.822Z,13
2018-01-24T04:57:26.913Z,13
2018-01-24T05:07:26.827Z,13
2018-01-24T05:17:26.981Z,11
2018-01-24T05:27:26.908Z,10
2018-01-24T05:37:27.034Z,10
2018-01-24T05:47:26.907Z,8
2018-01-24T05:57:27.032Z,8
2018-01-24T06:07:26.948Z,6
2018-01-24T06:17:27.023Z,5
2018-01-24T06:27:27.017Z,4
2018-01-24T06:37:26.961Z,4
2018-01-24T06:47:27.465Z,3
2018-01-24T06:57:26.949Z,3
2018-01-24T07:07:27.058Z,3
2018-01-24T07:17:26.939Z,3
2018-01-24T07:27:27.075Z,3
2018-01-24T07:37:27.028Z,3
2018-01-24T07:47:27.170Z,2
2018-01-24T07:57:27.053Z,2
2018-01-24T08:07:27.077Z,2
2018-01-24T08:17:27.025Z,1
2018-01-24T08:27:27.147Z,1
2018-01-24T08:37:27.081Z,1
2018-01-24T08:47:27.200Z,1
2018-01-24T08:57:27.088Z,1
2018-01-24T09:07:27.192Z,0
2018-01-24T09:17:27.376Z,0
2018-01-24T09:27:27.186Z,0
2018-01-24T09:37:27.534Z,0
2018-01-24T09:47:27.190Z,0
2018-01-24T09:57:27.192Z,0
2018-01-24T10:07:27.203Z,0
2018-01-24T10:17:27.239Z,0
2018-01-24T10:27:27.423Z,0
2018-01-24T10:37:27.275Z,0
2018-01-24T10:47:27.137Z,1
2018-01-24T10:57:27.258Z,1
2018-01-24T11:07:27.282Z,0
2018-01-24T11:17:27.300Z,1
2018-01-24T11:27:27.221Z,0
2018-01-24T11:37:27.296Z,0
2018-01-24T11:47:27.345Z,0
2018-01-24T11:57:27.826Z,0
2018-01-24T12:07:27.608Z,1
2018-01-24T12:17:27.348Z,1
2018-01-24T12:27:27.333Z,0
2018-01-24T12:37:27.361Z,1
2018-01-24T12:47:27.369Z,0
2018-01-24T12:57:27.437Z,0
2018-01-24T13:07:27.323Z,0
2018-01-24T13:17:27.508Z,0
2018-01-24T13:27:27.359Z,0
2018-01-24T13:37:27.448Z,0
2018-01-24T13:47:27.506Z,1
2018-01-24T13:57:27.350Z,1
2018-01-24T14:07:27.423Z,0
2018-01-24T14:17:27.489Z,0
2018-01-24T14:27:27.489Z,1
2018-01-24T14:37:27.429Z,1
2018-01-24T14:47:27.781Z,1
2018-01-24T14:57:27.464Z,1
2018-01-24T15:07:27.508Z,1
2018-01-24T15:17:27.815Z,1
2018-01-24T15:27:27.566Z,1
2018-01-24T15:37:27.585Z,1
2018-01-24T15:47:27.473Z,1
2018-01-24T15:57:27.563Z,1
2018-01-24T16:07:27.502Z,1
2018-01-24T16:17:27.586Z,0
2018-01-24T16:27:27.627Z,0
2018-01-24T16:37:27.631Z,0
2018-01-24T16:47:27.668Z,0
2018-01-24T16:57:27.547Z,0
2018-01-24T17:07:27.586Z,0
2018-01-24T17:17:27.640Z,1
2018-01-24T17:27:27.640Z,1
2018-01-24T17:37:27.637Z,0
2018-01-24T17:47:27.732Z,0
2018-01-24T17:57:27.714Z,0
2018-01-24T18:07:27.675Z,0
2018-01-24T18:17:27.772Z,0
2018-01-24T18:27:27.716Z,0
2018-01-24T18:37:28.047Z,0
2018-01-24T18:47:27.645Z,0
2018-01-24T18:57:27.814Z,0
2018-01-24T19:07:27.787Z,1
2018-01-24T19:17:27.832Z,0
2018-01-24T19:27:27.827Z,1
2018-01-24T19:37:27.849Z,1
2018-01-24T19:47:27.770Z,1
2018-01-24T19:57:27.864Z,1
2018-01-24T20:07:28.886Z,1
2018-01-24T20:17:28.000Z,1
2018-01-24T20:27:27.856Z,1
2018-01-24T20:37:27.821Z,1
2018-01-24T20:47:28.258Z,1
2018-01-24T20:57:28.308Z,1
2018-01-24T21:07:27.912Z,1
2018-01-24T21:17:28.072Z,1
2018-01-24T21:27:28.064Z,1
2018-01-24T21:37:28.129Z,1
2018-01-24T21:47:27.924Z,1
2018-01-24T21:57:27.922Z,1
2018-01-24T22:07:27.984Z,1
2018-01-24T22:17:27.905Z,1
2018-01-24T22:27:28.019Z,1
2018-01-24T22:37:27.904Z,2
2018-01-24T22:47:28.054Z,1
2018-01-24T22:57:28.056Z,2
2018-01-24T23:07:28.130Z,2
2018-01-24T23:17:28.056Z,2
2018-01-24T23:27:28.021Z,2
2018-01-24T23:37:27.943Z,1
2018-01-24T23:47:28.089Z,2
2018-01-24T23:57:27.997Z,1
